sensor_id;sensor_type;location;lat;lon;timestamp;P1;durP1;ratioP1;P2;durP2;ratioP2
30151;SDS011;16963;26.018;-80.216;2022-07-18T00:01:30;16.17;;;3.65;;
30151;SDS011;16963;26.018;-80.216;2022-07-18T00:06:28;9.20;;;3.15;;
30151;SDS011;16963;26.018;-80.216;2022-07-18T00:08:54;15.43;;;3.17;;
30151;SDS011;16963;26.018;-80.216;2022-07-18T00:11:32;15.10;;;3.90;;
30151;SDS011;16963;26.018;-80.216;2022-07-18T00:14:00;15.40;;;3.38;;
30151;SDS011;16963;26.018;-80.216;2022-07-18T00:16:27;13.32;;;3.33;;
30151;SDS011;16963;26.018;-80.216;2022-07-18T00:21:26;11.63;;;3.13;;
30151;SDS011;16963;26.018;-80.216;2022-07-18T00:23:54;14.15;;;3.30;;
30151;SDS011;16963;26.018;-80.216;2022-07-18T00:26:22;15.70;;;3.97;;
30151;SDS011;16963;26.018;-80.216;2022-07-18T00:28:51;17.55;;;4.68;;
30151;SDS011;16963;26.018;-80.216;2022-07-18T00:31:29;16.23;;;3.35;;
30151;SDS011;16963;26.018;-80.216;2022-07-18T00:33:59;15.00;;;3.57;;
30151;SDS011;16963;26.018;-80.216;2022-07-18T00:36:27;18.42;;;4.10;;
30151;SDS011;16963;26.018;-80.216;2022-07-18T00:38:58;17.20;;;3.72;;
30151;SDS011;16963;26.018;-80.216;2022-07-18T00:41:26;21.88;;;3.80;;
30151;SDS011;16963;26.018;-80.216;2022-07-18T00:43:53;14.75;;;3.35;;
30151;SDS011;16963;26.018;-80.216;2022-07-18T00:46:22;17.10;;;4.22;;
30151;SDS011;16963;26.018;-80.216;2022-07-18T00:48:53;15.70;;;3.35;;
30151;SDS011;16963;26.018;-80.216;2022-07-18T00:51:22;15.63;;;4.18;;
30151;SDS011;16963;26.018;-80.216;2022-07-18T00:53:49;17.45;;;3.60;;
30151;SDS011;16963;26.018;-80.216;2022-07-18T00:56:22;18.65;;;3.90;;
30151;SDS011;16963;26.018;-80.216;2022-07-18T00:58:55;13.80;;;3.85;;
30151;SDS011;16963;26.018;-80.216;2022-07-18T01:01:23;16.58;;;3.90;;
30151;SDS011;16963;26.018;-80.216;2022-07-18T01:04:10;16.90;;;4.10;;
30151;SDS011;16963;26.018;-80.216;2022-07-18T01:06:46;19.40;;;4.35;;
30151;SDS011;16963;26.018;-80.216;2022-07-18T01:09:15;18.70;;;4.25;;
30151;SDS011;16963;26.018;-80.216;2022-07-18T01:11:45;17.67;;;4.50;;
30151;SDS011;16963;26.018;-80.216;2022-07-18T01:14:14;19.97;;;5.10;;
30151;SDS011;16963;26.018;-80.216;2022-07-18T01:16:48;19.73;;;4.22;;
30151;SDS011;16963;26.018;-80.216;2022-07-18T01:19:18;18.85;;;3.70;;
30151;SDS011;16963;26.018;-80.216;2022-07-18T01:21:45;22.55;;;5.18;;
30151;SDS011;16963;26.018;-80.216;2022-07-18T01:24:13;22.02;;;4.40;;
30151;SDS011;16963;26.018;-80.216;2022-07-18T01:26:41;19.60;;;3.92;;
30151;SDS011;16963;26.018;-80.216;2022-07-18T01:29:09;17.33;;;4.13;;
30151;SDS011;16963;26.018;-80.216;2022-07-18T01:31:39;14.82;;;3.35;;
30151;SDS011;16963;26.018;-80.216;2022-07-18T01:34:07;19.40;;;4.68;;
30151;SDS011;16963;26.018;-80.216;2022-07-18T01:38:44;14.63;;;3.50;;
30151;SDS011;16963;26.018;-80.216;2022-07-18T01:41:12;18.52;;;4.07;;
30151;SDS011;16963;26.018;-80.216;2022-07-18T01:43:41;21.80;;;5.25;;
30151;SDS011;16963;26.018;-80.216;2022-07-18T01:46:09;16.73;;;4.30;;
30151;SDS011;16963;26.018;-80.216;2022-07-18T01:48:40;17.63;;;4.30;;
30151;SDS011;16963;26.018;-80.216;2022-07-18T01:51:08;19.05;;;3.83;;
30151;SDS011;16963;26.018;-80.216;2022-07-18T01:53:40;18.83;;;4.18;;
30151;SDS011;16963;26.018;-80.216;2022-07-18T01:56:11;20.85;;;4.88;;
30151;SDS011;16963;26.018;-80.216;2022-07-18T01:58:38;18.30;;;5.10;;
30151;SDS011;16963;26.018;-80.216;2022-07-18T02:01:16;25.02;;;4.38;;
30151;SDS011;16963;26.018;-80.216;2022-07-18T02:03:44;14.38;;;3.78;;
30151;SDS011;16963;26.018;-80.216;2022-07-18T02:06:12;18.17;;;3.60;;
30151;SDS011;16963;26.018;-80.216;2022-07-18T02:08:40;12.45;;;3.53;;
30151;SDS011;16963;26.018;-80.216;2022-07-18T02:11:07;17.55;;;4.30;;
30151;SDS011;16963;26.018;-80.216;2022-07-18T02:13:35;20.20;;;4.47;;
30151;SDS011;16963;26.018;-80.216;2022-07-18T02:16:02;16.88;;;4.22;;
30151;SDS011;16963;26.018;-80.216;2022-07-18T02:18:30;16.42;;;4.15;;
30151;SDS011;16963;26.018;-80.216;2022-07-18T02:21:42;15.10;;;3.90;;
30151;SDS011;16963;26.018;-80.216;2022-07-18T02:24:10;21.00;;;4.88;;
30151;SDS011;16963;26.018;-80.216;2022-07-18T02:26:39;16.02;;;4.00;;
30151;SDS011;16963;26.018;-80.216;2022-07-18T02:29:07;15.77;;;3.63;;
30151;SDS011;16963;26.018;-80.216;2022-07-18T02:31:34;22.33;;;4.57;;
30151;SDS011;16963;26.018;-80.216;2022-07-18T02:34:02;20.55;;;3.97;;
30151;SDS011;16963;26.018;-80.216;2022-07-18T02:36:38;16.67;;;4.70;;
30151;SDS011;16963;26.018;-80.216;2022-07-18T02:39:08;15.10;;;4.25;;
30151;SDS011;16963;26.018;-80.216;2022-07-18T02:41:48;16.20;;;4.35;;
30151;SDS011;16963;26.018;-80.216;2022-07-18T02:44:18;21.33;;;5.70;;
30151;SDS011;16963;26.018;-80.216;2022-07-18T02:46:47;15.82;;;4.18;;
30151;SDS011;16963;26.018;-80.216;2022-07-18T02:49:15;17.63;;;4.53;;
30151;SDS011;16963;26.018;-80.216;2022-07-18T02:51:55;14.77;;;4.35;;
30151;SDS011;16963;26.018;-80.216;2022-07-18T02:54:25;14.50;;;3.92;;
30151;SDS011;16963;26.018;-80.216;2022-07-18T02:56:53;17.80;;;4.68;;
30151;SDS011;16963;26.018;-80.216;2022-07-18T02:59:21;20.42;;;5.47;;
30151;SDS011;16963;26.018;-80.216;2022-07-18T03:04:27;16.35;;;3.70;;
30151;SDS011;16963;26.018;-80.216;2022-07-18T03:06:54;20.42;;;3.95;;
30151;SDS011;16963;26.018;-80.216;2022-07-18T03:09:22;17.63;;;4.05;;
30151;SDS011;16963;26.018;-80.216;2022-07-18T03:11:54;16.15;;;4.03;;
30151;SDS011;16963;26.018;-80.216;2022-07-18T03:14:22;16.10;;;4.35;;
30151;SDS011;16963;26.018;-80.216;2022-07-18T03:16:53;17.58;;;4.10;;
30151;SDS011;16963;26.018;-80.216;2022-07-18T03:19:20;18.48;;;4.10;;
30151;SDS011;16963;26.018;-80.216;2022-07-18T03:21:48;16.02;;;4.10;;
30151;SDS011;16963;26.018;-80.216;2022-07-18T03:24:30;20.13;;;4.28;;
30151;SDS011;16963;26.018;-80.216;2022-07-18T03:29:57;19.95;;;4.07;;
30151;SDS011;16963;26.018;-80.216;2022-07-18T03:32:24;21.75;;;5.20;;
30151;SDS011;16963;26.018;-80.216;2022-07-18T03:34:54;17.20;;;4.10;;
30151;SDS011;16963;26.018;-80.216;2022-07-18T03:37:21;17.10;;;4.50;;
30151;SDS011;16963;26.018;-80.216;2022-07-18T03:39:49;16.17;;;3.88;;
30151;SDS011;16963;26.018;-80.216;2022-07-18T03:42:19;26.23;;;4.90;;
30151;SDS011;16963;26.018;-80.216;2022-07-18T03:44:47;21.08;;;4.90;;
30151;SDS011;16963;26.018;-80.216;2022-07-18T03:47:15;18.92;;;4.35;;
30151;SDS011;16963;26.018;-80.216;2022-07-18T03:51:10;17.50;;;3.67;;
30151;SDS011;16963;26.018;-80.216;2022-07-18T03:53:42;19.02;;;4.70;;
30151;SDS011;16963;26.018;-80.216;2022-07-18T03:56:09;21.35;;;4.72;;
30151;SDS011;16963;26.018;-80.216;2022-07-18T03:58:37;21.88;;;4.53;;
30151;SDS011;16963;26.018;-80.216;2022-07-18T04:01:04;22.17;;;5.07;;
30151;SDS011;16963;26.018;-80.216;2022-07-18T04:03:34;17.83;;;4.40;;
30151;SDS011;16963;26.018;-80.216;2022-07-18T04:06:02;23.67;;;4.47;;
30151;SDS011;16963;26.018;-80.216;2022-07-18T04:08:30;20.23;;;4.50;;
30151;SDS011;16963;26.018;-80.216;2022-07-18T04:10:59;24.25;;;5.70;;
30151;SDS011;16963;26.018;-80.216;2022-07-18T04:13:25;23.63;;;5.43;;
30151;SDS011;16963;26.018;-80.216;2022-07-18T04:18:25;24.10;;;5.50;;
30151;SDS011;16963;26.018;-80.216;2022-07-18T04:20:55;25.15;;;4.50;;
30151;SDS011;16963;26.018;-80.216;2022-07-18T04:23:22;23.65;;;5.60;;
30151;SDS011;16963;26.018;-80.216;2022-07-18T04:25:50;25.77;;;5.68;;
30151;SDS011;16963;26.018;-80.216;2022-07-18T04:28:18;20.30;;;5.10;;
30151;SDS011;16963;26.018;-80.216;2022-07-18T04:30:46;24.88;;;5.32;;
30151;SDS011;16963;26.018;-80.216;2022-07-18T04:33:13;19.90;;;4.93;;
30151;SDS011;16963;26.018;-80.216;2022-07-18T04:35:41;24.88;;;4.78;;
30151;SDS011;16963;26.018;-80.216;2022-07-18T04:38:09;22.70;;;5.35;;
30151;SDS011;16963;26.018;-80.216;2022-07-18T04:40:38;22.90;;;5.47;;
30151;SDS011;16963;26.018;-80.216;2022-07-18T04:43:20;20.73;;;4.80;;
30151;SDS011;16963;26.018;-80.216;2022-07-18T04:45:48;22.90;;;5.10;;
30151;SDS011;16963;26.018;-80.216;2022-07-18T04:48:15;26.00;;;5.28;;
30151;SDS011;16963;26.018;-80.216;2022-07-18T04:50:43;24.50;;;5.60;;
30151;SDS011;16963;26.018;-80.216;2022-07-18T04:53:12;19.75;;;4.45;;
30151;SDS011;16963;26.018;-80.216;2022-07-18T04:55:40;22.70;;;5.10;;
30151;SDS011;16963;26.018;-80.216;2022-07-18T04:58:07;20.40;;;4.85;;
30151;SDS011;16963;26.018;-80.216;2022-07-18T05:00:35;18.90;;;4.75;;
30151;SDS011;16963;26.018;-80.216;2022-07-18T05:03:14;21.17;;;4.75;;
30151;SDS011;16963;26.018;-80.216;2022-07-18T05:05:43;23.00;;;4.75;;
30151;SDS011;16963;26.018;-80.216;2022-07-18T05:08:10;29.33;;;5.35;;
30151;SDS011;16963;26.018;-80.216;2022-07-18T05:10:40;19.73;;;4.72;;
30151;SDS011;16963;26.018;-80.216;2022-07-18T05:13:08;27.50;;;5.60;;
30151;SDS011;16963;26.018;-80.216;2022-07-18T05:15:38;27.65;;;6.43;;
30151;SDS011;16963;26.018;-80.216;2022-07-18T05:18:05;25.48;;;5.80;;
30151;SDS011;16963;26.018;-80.216;2022-07-18T05:20:35;23.40;;;4.90;;
30151;SDS011;16963;26.018;-80.216;2022-07-18T05:23:01;22.23;;;5.50;;
30151;SDS011;16963;26.018;-80.216;2022-07-18T05:25:41;26.90;;;5.18;;
30151;SDS011;16963;26.018;-80.216;2022-07-18T05:28:09;23.40;;;5.30;;
30151;SDS011;16963;26.018;-80.216;2022-07-18T05:30:39;23.75;;;4.88;;
30151;SDS011;16963;26.018;-80.216;2022-07-18T05:33:08;24.42;;;5.47;;
30151;SDS011;16963;26.018;-80.216;2022-07-18T05:38:05;24.00;;;5.55;;
30151;SDS011;16963;26.018;-80.216;2022-07-18T05:40:33;19.20;;;4.88;;
30151;SDS011;16963;26.018;-80.216;2022-07-18T05:43:01;24.73;;;5.18;;
30151;SDS011;16963;26.018;-80.216;2022-07-18T05:45:30;25.38;;;5.40;;
30151;SDS011;16963;26.018;-80.216;2022-07-18T05:47:58;27.67;;;5.13;;
30151;SDS011;16963;26.018;-80.216;2022-07-18T05:52:53;20.27;;;5.43;;
30151;SDS011;16963;26.018;-80.216;2022-07-18T05:55:21;25.73;;;5.75;;
30151;SDS011;16963;26.018;-80.216;2022-07-18T05:57:48;30.63;;;5.45;;
30151;SDS011;16963;26.018;-80.216;2022-07-18T06:02:47;26.20;;;5.45;;
30151;SDS011;16963;26.018;-80.216;2022-07-18T06:05:18;18.67;;;4.88;;
30151;SDS011;16963;26.018;-80.216;2022-07-18T06:07:51;25.50;;;5.47;;
30151;SDS011;16963;26.018;-80.216;2022-07-18T06:10:20;25.20;;;5.22;;
30151;SDS011;16963;26.018;-80.216;2022-07-18T06:12:49;18.52;;;4.78;;
30151;SDS011;16963;26.018;-80.216;2022-07-18T06:15:17;24.10;;;5.47;;
30151;SDS011;16963;26.018;-80.216;2022-07-18T06:17:51;21.25;;;5.13;;
30151;SDS011;16963;26.018;-80.216;2022-07-18T06:20:20;23.02;;;5.65;;
30151;SDS011;16963;26.018;-80.216;2022-07-18T06:22:48;26.27;;;5.25;;
30151;SDS011;16963;26.018;-80.216;2022-07-18T06:25:16;26.25;;;5.05;;
30151;SDS011;16963;26.018;-80.216;2022-07-18T06:27:43;19.77;;;4.25;;
30151;SDS011;16963;26.018;-80.216;2022-07-18T06:30:11;21.75;;;4.85;;
30151;SDS011;16963;26.018;-80.216;2022-07-18T06:32:39;22.77;;;5.63;;
30151;SDS011;16963;26.018;-80.216;2022-07-18T06:35:08;21.10;;;5.30;;
30151;SDS011;16963;26.018;-80.216;2022-07-18T06:37:36;19.25;;;4.68;;
30151;SDS011;16963;26.018;-80.216;2022-07-18T06:40:03;18.48;;;4.50;;
30151;SDS011;16963;26.018;-80.216;2022-07-18T06:42:39;24.65;;;4.97;;
30151;SDS011;16963;26.018;-80.216;2022-07-18T06:45:07;23.95;;;4.63;;
30151;SDS011;16963;26.018;-80.216;2022-07-18T06:47:39;22.38;;;5.10;;
30151;SDS011;16963;26.018;-80.216;2022-07-18T06:50:08;22.60;;;4.65;;
30151;SDS011;16963;26.018;-80.216;2022-07-18T06:52:39;21.83;;;4.43;;
30151;SDS011;16963;26.018;-80.216;2022-07-18T06:55:08;20.90;;;4.68;;
30151;SDS011;16963;26.018;-80.216;2022-07-18T06:57:37;23.15;;;4.43;;
30151;SDS011;16963;26.018;-80.216;2022-07-18T07:00:05;20.58;;;4.22;;
30151;SDS011;16963;26.018;-80.216;2022-07-18T07:02:34;16.90;;;4.22;;
30151;SDS011;16963;26.018;-80.216;2022-07-18T07:05:17;21.33;;;4.20;;
30151;SDS011;16963;26.018;-80.216;2022-07-18T07:07:46;22.23;;;6.20;;
30151;SDS011;16963;26.018;-80.216;2022-07-18T07:10:16;22.60;;;5.43;;
30151;SDS011;16963;26.018;-80.216;2022-07-18T07:12:46;16.63;;;4.93;;
30151;SDS011;16963;26.018;-80.216;2022-07-18T07:15:19;21.75;;;4.78;;
30151;SDS011;16963;26.018;-80.216;2022-07-18T07:17:48;23.55;;;5.53;;
30151;SDS011;16963;26.018;-80.216;2022-07-18T07:20:17;18.90;;;5.20;;
30151;SDS011;16963;26.018;-80.216;2022-07-18T07:22:51;19.20;;;4.47;;
30151;SDS011;16963;26.018;-80.216;2022-07-18T07:25:37;22.38;;;5.57;;
30151;SDS011;16963;26.018;-80.216;2022-07-18T07:30:41;20.80;;;4.57;;
30151;SDS011;16963;26.018;-80.216;2022-07-18T07:33:09;20.73;;;4.80;;
30151;SDS011;16963;26.018;-80.216;2022-07-18T07:35:39;20.85;;;4.78;;
30151;SDS011;16963;26.018;-80.216;2022-07-18T07:38:06;23.95;;;6.10;;
30151;SDS011;16963;26.018;-80.216;2022-07-18T07:40:36;17.63;;;4.33;;
30151;SDS011;16963;26.018;-80.216;2022-07-18T07:43:07;28.45;;;5.00;;
30151;SDS011;16963;26.018;-80.216;2022-07-18T07:45:41;20.02;;;5.07;;
30151;SDS011;16963;26.018;-80.216;2022-07-18T07:48:10;20.55;;;4.88;;
30151;SDS011;16963;26.018;-80.216;2022-07-18T07:50:55;19.65;;;4.32;;
30151;SDS011;16963;26.018;-80.216;2022-07-18T07:55:57;22.13;;;5.60;;
30151;SDS011;16963;26.018;-80.216;2022-07-18T07:58:25;24.35;;;5.22;;
30151;SDS011;16963;26.018;-80.216;2022-07-18T08:00:53;21.75;;;5.10;;
30151;SDS011;16963;26.018;-80.216;2022-07-18T08:03:20;20.20;;;5.25;;
30151;SDS011;16963;26.018;-80.216;2022-07-18T08:05:48;27.95;;;5.32;;
30151;SDS011;16963;26.018;-80.216;2022-07-18T08:08:18;19.40;;;4.45;;
30151;SDS011;16963;26.018;-80.216;2022-07-18T08:10:46;22.75;;;5.05;;
30151;SDS011;16963;26.018;-80.216;2022-07-18T08:13:14;23.83;;;5.38;;
30151;SDS011;16963;26.018;-80.216;2022-07-18T08:15:42;23.67;;;5.30;;
30151;SDS011;16963;26.018;-80.216;2022-07-18T08:18:09;22.50;;;5.13;;
30151;SDS011;16963;26.018;-80.216;2022-07-18T08:20:47;19.58;;;4.88;;
30151;SDS011;16963;26.018;-80.216;2022-07-18T08:23:14;26.52;;;6.13;;
30151;SDS011;16963;26.018;-80.216;2022-07-18T08:25:44;24.27;;;5.50;;
30151;SDS011;16963;26.018;-80.216;2022-07-18T08:28:12;19.33;;;5.22;;
30151;SDS011;16963;26.018;-80.216;2022-07-18T08:30:41;24.70;;;5.40;;
30151;SDS011;16963;26.018;-80.216;2022-07-18T08:33:09;19.58;;;4.68;;
30151;SDS011;16963;26.018;-80.216;2022-07-18T08:35:38;19.73;;;4.95;;
30151;SDS011;16963;26.018;-80.216;2022-07-18T08:38:05;21.60;;;4.90;;
30151;SDS011;16963;26.018;-80.216;2022-07-18T08:40:37;23.00;;;5.13;;
30151;SDS011;16963;26.018;-80.216;2022-07-18T08:43:04;23.33;;;4.70;;
30151;SDS011;16963;26.018;-80.216;2022-07-18T08:45:44;22.27;;;4.78;;
30151;SDS011;16963;26.018;-80.216;2022-07-18T08:48:16;25.15;;;5.22;;
30151;SDS011;16963;26.018;-80.216;2022-07-18T08:50:45;23.25;;;5.72;;
30151;SDS011;16963;26.018;-80.216;2022-07-18T08:53:14;21.50;;;5.45;;
30151;SDS011;16963;26.018;-80.216;2022-07-18T08:55:45;24.20;;;5.10;;
30151;SDS011;16963;26.018;-80.216;2022-07-18T08:58:14;22.88;;;5.25;;
30151;SDS011;16963;26.018;-80.216;2022-07-18T09:01:04;22.05;;;5.95;;
30151;SDS011;16963;26.018;-80.216;2022-07-18T09:03:33;20.30;;;5.10;;
30151;SDS011;16963;26.018;-80.216;2022-07-18T09:06:12;22.60;;;5.07;;
30151;SDS011;16963;26.018;-80.216;2022-07-18T09:08:57;24.43;;;5.93;;
30151;SDS011;16963;26.018;-80.216;2022-07-18T09:11:26;19.25;;;4.45;;
30151;SDS011;16963;26.018;-80.216;2022-07-18T09:14:29;19.25;;;5.63;;
30151;SDS011;16963;26.018;-80.216;2022-07-18T09:17:08;17.80;;;4.78;;
30151;SDS011;16963;26.018;-80.216;2022-07-18T09:22:44;19.70;;;4.85;;
30151;SDS011;16963;26.018;-80.216;2022-07-18T09:25:20;19.92;;;5.20;;
30151;SDS011;16963;26.018;-80.216;2022-07-18T09:32:55;17.92;;;5.18;;
30151;SDS011;16963;26.018;-80.216;2022-07-18T09:35:32;26.77;;;5.47;;
30151;SDS011;16963;26.018;-80.216;2022-07-18T09:38:11;22.90;;;5.85;;
30151;SDS011;16963;26.018;-80.216;2022-07-18T09:43:15;22.98;;;5.15;;
30151;SDS011;16963;26.018;-80.216;2022-07-18T09:45:51;19.85;;;5.05;;
30151;SDS011;16963;26.018;-80.216;2022-07-18T09:48:37;27.10;;;5.38;;
30151;SDS011;16963;26.018;-80.216;2022-07-18T09:52:40;21.08;;;5.55;;
30151;SDS011;16963;26.018;-80.216;2022-07-18T09:55:10;22.58;;;4.90;;
30151;SDS011;16963;26.018;-80.216;2022-07-18T09:57:39;25.67;;;6.30;;
30151;SDS011;16963;26.018;-80.216;2022-07-18T10:00:08;26.25;;;6.18;;
30151;SDS011;16963;26.018;-80.216;2022-07-18T10:02:39;25.83;;;5.65;;
30151;SDS011;16963;26.018;-80.216;2022-07-18T10:05:07;23.42;;;5.68;;
30151;SDS011;16963;26.018;-80.216;2022-07-18T10:07:38;17.27;;;5.25;;
30151;SDS011;16963;26.018;-80.216;2022-07-18T10:10:07;23.35;;;5.55;;
30151;SDS011;16963;26.018;-80.216;2022-07-18T10:14:31;17.33;;;5.40;;
30151;SDS011;16963;26.018;-80.216;2022-07-18T10:17:01;22.58;;;5.45;;
30151;SDS011;16963;26.018;-80.216;2022-07-18T10:19:28;19.75;;;5.60;;
30151;SDS011;16963;26.018;-80.216;2022-07-18T10:22:00;21.13;;;5.18;;
30151;SDS011;16963;26.018;-80.216;2022-07-18T10:24:28;25.50;;;5.65;;
30151;SDS011;16963;26.018;-80.216;2022-07-18T10:27:18;21.05;;;5.97;;
30151;SDS011;16963;26.018;-80.216;2022-07-18T10:32:35;25.77;;;5.43;;
30151;SDS011;16963;26.018;-80.216;2022-07-18T10:44:42;22.58;;;5.50;;
30151;SDS011;16963;26.018;-80.216;2022-07-18T10:47:11;17.88;;;4.55;;
30151;SDS011;16963;26.018;-80.216;2022-07-18T11:03:08;17.08;;;4.65;;
30151;SDS011;16963;26.018;-80.216;2022-07-18T11:21:27;21.95;;;5.32;;
30151;SDS011;16963;26.018;-80.216;2022-07-18T11:26:38;24.27;;;6.05;;
30151;SDS011;16963;26.018;-80.216;2022-07-18T11:29:12;20.25;;;6.50;;
30151;SDS011;16963;26.018;-80.216;2022-07-18T11:34:48;22.00;;;6.15;;
30151;SDS011;16963;26.018;-80.216;2022-07-18T11:37:20;26.77;;;5.72;;
30151;SDS011;16963;26.018;-80.216;2022-07-18T11:39:48;22.80;;;6.32;;
30151;SDS011;16963;26.018;-80.216;2022-07-18T11:42:17;26.10;;;6.00;;
30151;SDS011;16963;26.018;-80.216;2022-07-18T11:45:01;28.08;;;6.63;;
30151;SDS011;16963;26.018;-80.216;2022-07-18T11:47:28;27.05;;;6.25;;
30151;SDS011;16963;26.018;-80.216;2022-07-18T11:49:58;26.10;;;5.82;;
30151;SDS011;16963;26.018;-80.216;2022-07-18T11:52:27;27.90;;;6.18;;
30151;SDS011;16963;26.018;-80.216;2022-07-18T11:57:41;26.70;;;5.60;;
30151;SDS011;16963;26.018;-80.216;2022-07-18T12:00:16;23.95;;;5.90;;
30151;SDS011;16963;26.018;-80.216;2022-07-18T12:05:44;35.70;;;6.25;;
30151;SDS011;16963;26.018;-80.216;2022-07-18T12:08:24;31.50;;;6.32;;
30151;SDS011;16963;26.018;-80.216;2022-07-18T12:11:08;24.90;;;5.95;;
30151;SDS011;16963;26.018;-80.216;2022-07-18T12:24:31;24.60;;;5.80;;
30151;SDS011;16963;26.018;-80.216;2022-07-18T12:27:16;25.38;;;5.65;;
30151;SDS011;16963;26.018;-80.216;2022-07-18T12:32:42;23.50;;;5.57;;
30151;SDS011;16963;26.018;-80.216;2022-07-18T12:35:27;27.80;;;5.78;;
30151;SDS011;16963;26.018;-80.216;2022-07-18T12:38:11;29.75;;;6.93;;
30151;SDS011;16963;26.018;-80.216;2022-07-18T12:41:18;25.13;;;6.38;;
30151;SDS011;16963;26.018;-80.216;2022-07-18T12:43:55;22.40;;;5.95;;
30151;SDS011;16963;26.018;-80.216;2022-07-18T12:46:23;30.38;;;6.55;;
30151;SDS011;16963;26.018;-80.216;2022-07-18T12:48:54;34.00;;;7.00;;
30151;SDS011;16963;26.018;-80.216;2022-07-18T12:51:28;22.33;;;6.07;;
30151;SDS011;16963;26.018;-80.216;2022-07-18T12:53:59;23.35;;;5.50;;
30151;SDS011;16963;26.018;-80.216;2022-07-18T12:56:27;31.38;;;7.20;;
30151;SDS011;16963;26.018;-80.216;2022-07-18T12:58:56;26.08;;;6.03;;
30151;SDS011;16963;26.018;-80.216;2022-07-18T13:03:19;23.92;;;5.60;;
30151;SDS011;16963;26.018;-80.216;2022-07-18T13:05:46;29.25;;;6.63;;
30151;SDS011;16963;26.018;-80.216;2022-07-18T13:08:15;21.63;;;5.43;;
30151;SDS011;16963;26.018;-80.216;2022-07-18T13:10:45;20.63;;;4.88;;
30151;SDS011;16963;26.018;-80.216;2022-07-18T13:13:13;22.70;;;5.25;;
30151;SDS011;16963;26.018;-80.216;2022-07-18T13:15:41;21.02;;;5.50;;
30151;SDS011;16963;26.018;-80.216;2022-07-18T13:18:09;21.60;;;5.28;;
30151;SDS011;16963;26.018;-80.216;2022-07-18T13:20:40;27.55;;;6.15;;
30151;SDS011;16963;26.018;-80.216;2022-07-18T13:24:24;25.73;;;6.50;;
30151;SDS011;16963;26.018;-80.216;2022-07-18T13:27:01;22.77;;;5.80;;
30151;SDS011;16963;26.018;-80.216;2022-07-18T13:29:30;23.73;;;5.53;;
30151;SDS011;16963;26.018;-80.216;2022-07-18T13:32:01;23.35;;;5.80;;
30151;SDS011;16963;26.018;-80.216;2022-07-18T13:34:30;22.05;;;4.97;;
30151;SDS011;16963;26.018;-80.216;2022-07-18T13:37:03;21.40;;;5.40;;
30151;SDS011;16963;26.018;-80.216;2022-07-18T13:39:30;22.48;;;5.00;;
30151;SDS011;16963;26.018;-80.216;2022-07-18T13:41:58;30.23;;;5.20;;
30151;SDS011;16963;26.018;-80.216;2022-07-18T13:44:29;23.42;;;4.88;;
30151;SDS011;16963;26.018;-80.216;2022-07-18T13:49:14;20.77;;;4.93;;
30151;SDS011;16963;26.018;-80.216;2022-07-18T13:51:43;21.13;;;4.88;;
30151;SDS011;16963;26.018;-80.216;2022-07-18T13:54:11;26.58;;;5.70;;
30151;SDS011;16963;26.018;-80.216;2022-07-18T13:56:39;26.48;;;5.85;;
30151;SDS011;16963;26.018;-80.216;2022-07-18T13:59:07;23.15;;;4.78;;
30151;SDS011;16963;26.018;-80.216;2022-07-18T14:01:35;25.10;;;6.15;;
30151;SDS011;16963;26.018;-80.216;2022-07-18T14:04:04;21.63;;;5.63;;
30151;SDS011;16963;26.018;-80.216;2022-07-18T14:06:34;23.20;;;6.03;;
30151;SDS011;16963;26.018;-80.216;2022-07-18T14:09:28;21.48;;;6.15;;
30151;SDS011;16963;26.018;-80.216;2022-07-18T14:11:57;29.92;;;6.20;;
30151;SDS011;16963;26.018;-80.216;2022-07-18T14:14:25;19.60;;;5.45;;
30151;SDS011;16963;26.018;-80.216;2022-07-18T14:16:55;22.33;;;5.63;;
30151;SDS011;16963;26.018;-80.216;2022-07-18T14:19:23;18.40;;;4.38;;
30151;SDS011;16963;26.018;-80.216;2022-07-18T14:21:51;24.98;;;5.40;;
30151;SDS011;16963;26.018;-80.216;2022-07-18T14:24:23;25.35;;;6.07;;
30151;SDS011;16963;26.018;-80.216;2022-07-18T14:26:51;21.83;;;4.95;;
30151;SDS011;16963;26.018;-80.216;2022-07-18T14:31:54;23.30;;;5.07;;
30151;SDS011;16963;26.018;-80.216;2022-07-18T14:34:22;27.90;;;5.22;;
30151;SDS011;16963;26.018;-80.216;2022-07-18T14:36:50;19.60;;;4.63;;
30151;SDS011;16963;26.018;-80.216;2022-07-18T14:39:19;24.57;;;5.73;;
30151;SDS011;16963;26.018;-80.216;2022-07-18T14:41:46;21.10;;;4.90;;
30151;SDS011;16963;26.018;-80.216;2022-07-18T14:44:14;21.15;;;4.97;;
30151;SDS011;16963;26.018;-80.216;2022-07-18T14:46:43;22.60;;;4.93;;
30151;SDS011;16963;26.018;-80.216;2022-07-18T14:49:11;22.08;;;5.30;;
30151;SDS011;16963;26.018;-80.216;2022-07-18T14:53:36;22.23;;;4.40;;
30151;SDS011;16963;26.018;-80.216;2022-07-18T14:56:04;29.17;;;5.03;;
30151;SDS011;16963;26.018;-80.216;2022-07-18T14:58:34;26.63;;;5.05;;
30151;SDS011;16963;26.018;-80.216;2022-07-18T15:01:01;27.23;;;5.85;;
30151;SDS011;16963;26.018;-80.216;2022-07-18T15:03:29;26.55;;;5.60;;
30151;SDS011;16963;26.018;-80.216;2022-07-18T15:06:16;28.38;;;5.72;;
30151;SDS011;16963;26.018;-80.216;2022-07-18T15:08:44;21.88;;;5.05;;
30151;SDS011;16963;26.018;-80.216;2022-07-18T15:11:11;21.08;;;4.95;;
30151;SDS011;16963;26.018;-80.216;2022-07-18T15:13:40;25.65;;;5.78;;
30151;SDS011;16963;26.018;-80.216;2022-07-18T15:18:43;24.60;;;5.88;;
30151;SDS011;16963;26.018;-80.216;2022-07-18T15:21:11;27.38;;;5.22;;
30151;SDS011;16963;26.018;-80.216;2022-07-18T15:23:41;21.58;;;5.70;;
30151;SDS011;16963;26.018;-80.216;2022-07-18T15:26:09;21.23;;;5.00;;
30151;SDS011;16963;26.018;-80.216;2022-07-18T15:28:38;22.77;;;5.83;;
30151;SDS011;16963;26.018;-80.216;2022-07-18T15:31:06;25.23;;;5.25;;
30151;SDS011;16963;26.018;-80.216;2022-07-18T15:33:34;24.10;;;5.75;;
30151;SDS011;16963;26.018;-80.216;2022-07-18T15:36:01;21.95;;;4.50;;
30151;SDS011;16963;26.018;-80.216;2022-07-18T15:41:08;23.80;;;5.53;;
30151;SDS011;16963;26.018;-80.216;2022-07-18T15:43:37;24.05;;;5.25;;
30151;SDS011;16963;26.018;-80.216;2022-07-18T15:46:06;21.88;;;4.97;;
30151;SDS011;16963;26.018;-80.216;2022-07-18T15:48:35;28.23;;;5.60;;
30151;SDS011;16963;26.018;-80.216;2022-07-18T15:51:03;23.05;;;5.38;;
30151;SDS011;16963;26.018;-80.216;2022-07-18T15:53:30;22.55;;;5.20;;
30151;SDS011;16963;26.018;-80.216;2022-07-18T15:55:59;18.88;;;5.38;;
30151;SDS011;16963;26.018;-80.216;2022-07-18T15:58:27;21.83;;;5.45;;
30151;SDS011;16963;26.018;-80.216;2022-07-18T16:02:51;23.95;;;5.70;;
30151;SDS011;16963;26.018;-80.216;2022-07-18T16:05:20;20.47;;;5.60;;
30151;SDS011;16963;26.018;-80.216;2022-07-18T16:07:48;22.02;;;5.32;;
30151;SDS011;16963;26.018;-80.216;2022-07-18T16:10:15;25.75;;;5.40;;
30151;SDS011;16963;26.018;-80.216;2022-07-18T16:12:43;26.10;;;5.10;;
30151;SDS011;16963;26.018;-80.216;2022-07-18T16:15:10;22.67;;;5.55;;
30151;SDS011;16963;26.018;-80.216;2022-07-18T16:17:40;20.40;;;4.75;;
30151;SDS011;16963;26.018;-80.216;2022-07-18T16:20:08;20.00;;;5.03;;
30151;SDS011;16963;26.018;-80.216;2022-07-18T16:22:36;25.80;;;4.93;;
30151;SDS011;16963;26.018;-80.216;2022-07-18T16:25:03;19.98;;;4.78;;
30151;SDS011;16963;26.018;-80.216;2022-07-18T16:27:43;19.67;;;5.60;;
30151;SDS011;16963;26.018;-80.216;2022-07-18T16:30:11;21.00;;;4.68;;
30151;SDS011;16963;26.018;-80.216;2022-07-18T16:32:39;19.55;;;5.68;;
30151;SDS011;16963;26.018;-80.216;2022-07-18T16:35:07;21.33;;;4.90;;